Valletta, Malta
Current Conditions -  °F | °C
As of 5:45 PM on Friday 28 Nov 2014 (Local Time) from LMML Reporting Station
Clear Clear  
Wind Chill: 68°   Ceiling: Unl
Heat Index: 68°   Visibility: 6mi
Dew Point: 61°   Wind: 18mph
Humidity: 78%   Direction: 200°SSW
Pressure: 29.8"   Gusts: NA
Location:  35.91°N, 14.52°E
Report Text: LMML 281545Z 20016KT CAVOK 20/16 Q1009 NOSIG
Loading
Personal Weather Stations






























Interactive Weather Map New forecast layout! Learn more

10-Day Weather Forecast

Advertisements
Track Severe Weather on mobile